Визирный

Карта отелей и гостиниц, располагающихся рядом с аэропортом Визирный :

Визирный Иркутская область 58° 54' 10.5408" N, 111° 15' 28.8684" E
Визирный Иркутская область 58° 54' 10.5408" N, 111° 15' 28.8684" E
Код аэродрома ИКАО
UIBW
Код аэродрома RU
УИБВ
Координаты
N58.90293° E111.25802°
Превышение над уровнем моря
226
Основная полоса
04/22
Курс магнитный
038/218
Длина основной ВПП
590
Ширина основной ВПП
50
Покрытие основной ВПП
Нетвёрдое (грунт)
Освещение ВПП
Нет
Тип: 
Аэродром
Класс аэродрома: 
Принадлежность: 
ГА
Статус: 
Недействующий
Сайт: 
E-mail аэродрома: 
Страна: 
Россия
Регион: 
Иркутская область
Город: 
Дополнительная информация: 
Бывший аэродром МВЛ-2. ГВПП сильно заросла.

Найти трансфер

С помощью этой формы Вы можете найти трансфер из аэропорта Визирный в город, аэропорт или вокзал:

Карта места

Javascript is required to view this map.

Погода в аэропортах:

Авиационная погода в Храброво

Регион: 
Погода METAR: 
UMKK 171530Z 08005MPS 5000 -DZ BR OVC004 13/13 Q1010 R06/95D NOSIG RMK QBB120 OBST OBSC QFE756/1008
Время наблюдения
2021-09-17T15:30:00Z
Температура C
13.0
Точка росы
13.0
Направление ветра
80
Скорость ветра (узлы)
10
Метео видимость
3.11
Явления погоды
-DZ BR
Условия полета
LIFR
Аэропорт подробнее: 

Авиационная погода в аэропорту Международный

Регион: 
Погода METAR: 
UKLL 171630Z 01004MPS 3600 -SHRA BKN004 BKN030CB 17/16 Q1005 R31/290055 NOSIG
Время наблюдения
2021-09-17T16:30:00Z
Температура C
17.0
Точка росы
16.0
Направление ветра
10
Скорость ветра (узлы)
8
Метео видимость
2.24
Явления погоды
-SHRA
Условия полета
LIFR
Аэропорт подробнее: 

Авиационная погода в Емельяново

Регион: 
Погода METAR: 
UNKL 171530Z VRB01MPS 1400 1200W BR NSC 09/09 Q1007 R29/CLRD65 NOSIG RMK QFE730
Время наблюдения
2021-09-17T15:30:00Z
Температура C
9.0
Точка росы
9.0
Направление ветра
0
Скорость ветра (узлы)
2
Метео видимость
0.87
Явления погоды
BR
Условия полета
LIFR
Аэропорт подробнее: 

Авиационная погода в Якутске

Регион: 
Погода METAR: 
UEEE 171530Z 29002MPS 9999 -SHRA BKN020CB 07/06 Q0998 R23L/290155 NOSIG RMK QFE740
Время наблюдения
2021-09-17T15:30:00Z
Температура C
7.0
Точка росы
6.0
Направление ветра
290
Скорость ветра (узлы)
4
Метео видимость
6.21
Явления погоды
-SHRA
Условия полета
MVFR
Аэропорт подробнее: